createdAt,value
2023-04-03T00:00:42.752Z,71.75
2023-04-03T00:03:47.409Z,71.53
2023-04-03T00:06:54.766Z,71.65
2023-04-03T00:09:57.625Z,71.47
2023-04-03T00:13:00.570Z,71.68
2023-04-03T00:16:04.401Z,71.07
2023-04-03T00:19:08.016Z,70.89
2023-04-03T00:22:11.173Z,70.35
2023-04-03T00:25:14.756Z,70.60
2023-04-03T00:28:17.910Z,70.64
2023-04-03T00:31:21.805Z,70.55
2023-04-03T00:34:24.961Z,70.33
2023-04-03T00:37:27.814Z,70.77
2023-04-03T00:40:41.172Z,71.19
2023-04-03T00:43:48.043Z,70.80
2023-04-03T00:46:52.029Z,70.40
2023-04-03T00:49:55.536Z,70.30
2023-04-03T00:52:59.799Z,70.43
2023-04-03T00:56:04.276Z,69.86
2023-04-03T00:59:13.578Z,70.03
2023-04-03T01:02:16.561Z,70.10
2023-04-03T01:05:21.545Z,70.34
2023-04-03T01:08:24.607Z,69.99
2023-04-03T01:11:29.868Z,70.12
2023-04-03T01:14:36.471Z,69.78
2023-04-03T01:17:44.331Z,70.00
2023-04-03T01:21:14.503Z,69.52
2023-04-03T01:24:29.099Z,69.83
2023-04-03T01:27:31.630Z,69.49
2023-04-03T01:30:52.452Z,69.77
2023-04-03T01:33:56.765Z,69.47
2023-04-03T01:36:59.942Z,69.21
2023-04-03T01:40:03.862Z,69.51
2023-04-03T01:43:13.772Z,69.38
2023-04-03T01:46:17.882Z,69.17
2023-04-03T01:49:21.003Z,69.02
2023-04-03T01:52:26.515Z,68.84
2023-04-03T01:55:30.882Z,68.61
2023-04-03T01:58:34.878Z,69.09
2023-04-03T02:01:38.250Z,68.83
2023-04-03T02:04:42.865Z,68.81
2023-04-03T02:07:46.879Z,68.40
2023-04-03T02:10:51.685Z,69.01
2023-04-03T02:13:54.432Z,68.82
2023-04-03T02:16:57.994Z,68.67
2023-04-03T02:20:01.046Z,69.01
2023-04-03T02:23:04.688Z,68.71
2023-04-03T02:26:13.206Z,68.73
2023-04-03T02:29:26.452Z,68.44
2023-04-03T02:32:31.672Z,68.43
2023-04-03T02:35:34.612Z,68.72
2023-04-03T02:38:38.159Z,68.37
2023-04-03T02:41:41.078Z,68.52
2023-04-03T02:44:45.846Z,68.55
2023-04-03T02:47:55.157Z,68.46
2023-04-03T02:50:58.965Z,68.31
2023-04-03T02:54:01.851Z,68.15
2023-04-03T02:57:07.488Z,68.51
2023-04-03T03:00:12.345Z,68.28
2023-04-03T03:03:16.582Z,68.46
2023-04-03T03:06:20.063Z,68.60
2023-04-03T03:09:22.920Z,68.60
2023-04-03T03:12:26.152Z,68.69
2023-04-03T03:15:29.705Z,68.66
2023-04-03T03:18:34.186Z,68.68
2023-04-03T03:21:37.528Z,68.97
2023-04-03T03:24:48.428Z,69.12
2023-04-03T03:27:58.143Z,69.04
2023-04-03T03:31:11.781Z,69.41
2023-04-03T03:34:16.627Z,69.59
2023-04-03T03:37:21.494Z,69.85
2023-04-03T03:40:24.549Z,69.79
2023-04-03T03:43:28.503Z,69.80
2023-04-03T03:46:35.468Z,69.87
2023-04-03T03:49:41.749Z,69.84
2023-04-03T03:52:45.666Z,70.05
2023-04-03T03:55:48.692Z,69.93
2023-04-03T03:58:58.231Z,70.28
2023-04-03T04:02:03.641Z,70.00
2023-04-03T04:05:07.457Z,70.04
2023-04-03T04:08:19.910Z,70.20
2023-04-03T04:11:24.964Z,70.48
2023-04-03T04:14:32.656Z,70.44
2023-04-03T04:17:37.445Z,70.56
2023-04-03T04:20:42.720Z,70.34
2023-04-03T04:23:46.524Z,70.39
2023-04-03T04:26:52.488Z,70.34
2023-04-03T04:30:03.331Z,70.74
2023-04-03T04:33:07.928Z,70.78
2023-04-03T04:36:11.595Z,70.80
2023-04-03T04:39:22.533Z,70.99
2023-04-03T04:42:32.423Z,71.14
2023-04-03T04:45:36.018Z,70.85
2023-04-03T04:48:41.573Z,70.62
2023-04-03T04:51:52.344Z,70.42
2023-04-03T04:55:05.896Z,70.67
2023-04-03T04:58:13.663Z,70.38
2023-04-03T05:01:23.660Z,70.15
2023-04-03T05:04:33.527Z,69.98
2023-04-03T05:07:43.944Z,69.76
2023-04-03T05:10:47.997Z,69.75
2023-04-03T05:13:53.456Z,69.63
2023-04-03T05:16:59.502Z,69.89
2023-04-03T05:20:11.813Z,69.93
2023-04-03T05:23:16.584Z,69.64
2023-04-03T05:26:20.105Z,69.65
2023-04-03T05:29:24.542Z,69.56
2023-04-03T05:32:29.517Z,69.07
2023-04-03T05:35:34.241Z,68.67
2023-04-03T05:38:41.125Z,67.58
2023-04-03T05:41:48.814Z,67.76
2023-04-03T05:44:54.487Z,66.38
2023-04-03T05:47:59.951Z,65.12
2023-04-03T05:51:12.673Z,64.39
2023-04-03T05:54:25.747Z,65.03
2023-04-03T05:57:31.550Z,64.97
2023-04-03T06:00:34.994Z,64.90
2023-04-03T06:03:40.715Z,65.27
2023-04-03T06:06:54.472Z,64.78
2023-04-03T06:09:59.358Z,64.37
2023-04-03T06:13:04.703Z,65.23
2023-04-03T06:16:16.435Z,65.36
2023-04-03T06:19:26.884Z,65.02
2023-04-03T06:22:32.036Z,65.36
2023-04-03T06:25:38.514Z,64.91
2023-04-03T06:28:42.044Z,64.74
2023-04-03T06:31:46.500Z,64.98
2023-04-03T06:34:54.837Z,64.67
2023-04-03T06:38:00.119Z,63.62
2023-04-03T06:41:06.423Z,63.83
2023-04-03T06:44:16.899Z,63.78
2023-04-03T06:47:22.693Z,64.15
2023-04-03T06:50:27.505Z,64.17
2023-04-03T06:53:33.023Z,64.14
2023-04-03T06:56:38.512Z,63.69
2023-04-03T06:59:43.426Z,62.73
2023-04-03T07:02:47.637Z,63.14
2023-04-03T07:05:51.749Z,62.45
2023-04-03T07:08:56.441Z,59.32
2023-04-03T07:12:18.479Z,59.12
2023-04-03T07:15:22.430Z,58.89
2023-04-03T07:18:34.446Z,58.43
2023-04-03T07:21:49.629Z,58.86
2023-04-03T07:25:00.440Z,58.56
2023-04-03T07:28:05.757Z,55.93
2023-04-03T07:31:20.405Z,55.72
2023-04-03T07:34:33.792Z,53.07
2023-04-03T07:37:37.471Z,54.70
2023-04-03T07:40:51.237Z,53.18
2023-04-03T07:43:57.718Z,52.99
2023-04-03T07:47:00.963Z,54.90
2023-04-03T07:50:13.438Z,55.78
2023-04-03T07:53:18.341Z,53.49
2023-04-03T07:56:29.156Z,55.63
2023-04-03T07:59:34.426Z,55.50
2023-04-03T08:02:52.534Z,54.11
2023-04-03T08:05:55.884Z,55.44
2023-04-03T08:09:06.308Z,55.27
2023-04-03T08:12:18.439Z,54.55
2023-04-03T08:15:23.433Z,53.15
2023-04-03T08:18:27.743Z,52.99
2023-04-03T08:21:31.708Z,53.51
2023-04-03T08:24:39.326Z,52.59
2023-04-03T08:27:45.708Z,53.51
2023-04-03T08:30:49.815Z,53.33
2023-04-03T08:33:58.931Z,53.05
2023-04-03T08:37:02.658Z,53.15
2023-04-03T08:40:12.466Z,51.68
2023-04-03T08:43:40.465Z,51.81
2023-04-03T08:47:27.563Z,52.91
2023-04-03T08:51:03.642Z,50.79
2023-04-03T08:54:25.387Z,50.34
2023-04-03T08:57:49.429Z,51.48
2023-04-03T09:00:59.937Z,50.64
2023-04-03T09:04:15.185Z,50.74
2023-04-03T09:07:27.295Z,49.96
2023-04-03T09:10:44.508Z,48.66
2023-04-03T09:14:02.249Z,50.54
2023-04-03T09:17:38.607Z,49.06
2023-04-03T09:20:49.999Z,49.24
2023-04-03T09:23:58.595Z,48.88
2023-04-03T09:27:13.577Z,48.80
2023-04-03T09:30:21.527Z,48.24
2023-04-03T09:33:26.786Z,49.03
2023-04-03T09:36:52.470Z,49.32
2023-04-03T09:40:02.710Z,49.48
2023-04-03T09:43:34.015Z,48.14
2023-04-03T09:46:42.614Z,46.65
2023-04-03T09:49:50.964Z,47.40
2023-04-03T09:52:54.845Z,46.01
2023-04-03T09:56:00.574Z,46.11
2023-04-03T09:59:03.517Z,46.61
2023-04-03T10:02:30.172Z,45.44
2023-04-03T10:05:45.467Z,45.57
2023-04-03T10:09:21.659Z,41.14
2023-04-03T10:12:27.081Z,43.30
2023-04-03T10:15:41.471Z,42.82
2023-04-03T10:19:19.308Z,40.79
2023-04-03T10:22:39.439Z,39.80
2023-04-03T10:26:01.638Z,39.47
2023-04-03T10:29:43.892Z,38.27
2023-04-03T10:33:04.287Z,39.88
2023-04-03T10:36:25.722Z,40.87
2023-04-03T10:39:56.520Z,41.76
2023-04-03T10:43:13.692Z,39.89
2023-04-03T10:46:42.646Z,42.02
2023-04-03T10:50:30.733Z,41.49
2023-04-03T10:54:29.418Z,41.86
2023-04-03T10:57:33.494Z,42.17
2023-04-03T11:00:44.830Z,41.58
2023-04-03T11:03:56.901Z,41.39
2023-04-03T11:07:13.824Z,40.89
2023-04-03T11:10:57.307Z,41.78
2023-04-03T11:14:04.583Z,42.87
2023-04-03T11:17:37.483Z,43.91
2023-04-03T11:21:04.047Z,43.78
2023-04-03T11:24:23.500Z,45.17
2023-04-03T11:27:35.438Z,45.33
2023-04-03T11:31:01.759Z,45.43
2023-04-03T11:34:20.786Z,44.77
2023-04-03T11:37:39.449Z,45.74
2023-04-03T11:40:50.400Z,45.33
2023-04-03T11:44:05.808Z,45.20
2023-04-03T11:47:50.213Z,45.82
2023-04-03T11:50:58.830Z,44.80
2023-04-03T11:54:44.863Z,46.31
2023-04-03T11:57:59.966Z,46.05
2023-04-03T12:01:10.857Z,46.26
2023-04-03T12:04:22.802Z,46.05
2023-04-03T12:07:29.524Z,45.10
2023-04-03T12:10:40.874Z,46.13
2023-04-03T12:13:51.246Z,45.98
2023-04-03T12:17:01.322Z,46.15
2023-04-03T12:20:47.140Z,46.17
2023-04-03T12:24:04.058Z,45.70
2023-04-03T12:27:19.416Z,45.58
2023-04-03T12:30:32.696Z,45.51
2023-04-03T12:34:08.517Z,44.81
2023-04-03T12:37:36.722Z,45.65
2023-04-03T12:40:43.407Z,45.04
2023-04-03T12:44:21.320Z,45.76
2023-04-03T12:47:43.418Z,44.93
2023-04-03T12:50:51.436Z,45.40
2023-04-03T12:54:36.169Z,45.81
2023-04-03T12:57:41.836Z,44.71
2023-04-03T13:01:01.385Z,45.31
2023-04-03T13:04:06.291Z,45.87
2023-04-03T13:07:29.818Z,45.47
2023-04-03T13:11:12.396Z,45.13
2023-04-03T13:14:20.482Z,44.54
2023-04-03T13:17:28.682Z,44.28
2023-04-03T13:20:38.385Z,43.07
2023-04-03T13:23:46.362Z,44.50
2023-04-03T13:26:53.562Z,43.90
2023-04-03T13:30:02.472Z,42.58
2023-04-03T13:33:25.543Z,43.19
2023-04-03T13:36:35.815Z,43.73
2023-04-03T13:39:55.536Z,43.06
2023-04-03T13:43:13.501Z,42.82
2023-04-03T13:46:30.440Z,42.78
2023-04-03T13:49:46.015Z,43.26
2023-04-03T13:53:07.479Z,43.13
2023-04-03T13:56:29.540Z,42.99
2023-04-03T13:59:38.457Z,42.09
2023-04-03T14:02:49.533Z,42.38
2023-04-03T14:05:59.426Z,42.39
2023-04-03T14:09:06.534Z,43.44
2023-04-03T14:12:31.276Z,43.82
2023-04-03T14:15:36.252Z,43.48
2023-04-03T14:18:50.834Z,42.87
2023-04-03T14:22:07.389Z,44.59
2023-04-03T14:25:15.438Z,43.92
2023-04-03T14:28:23.450Z,43.68
2023-04-03T14:31:45.469Z,43.98
2023-04-03T14:35:14.346Z,42.78
2023-04-03T14:38:30.847Z,42.75
2023-04-03T14:41:38.487Z,43.31
2023-04-03T14:44:45.426Z,42.24
2023-04-03T14:47:55.499Z,43.09
2023-04-03T14:51:06.829Z,43.46
2023-04-03T14:54:29.378Z,43.42
2023-04-03T14:57:37.522Z,43.47
2023-04-03T15:00:44.523Z,43.59
2023-04-03T15:04:03.822Z,43.72
2023-04-03T15:07:22.334Z,43.48
2023-04-03T15:10:32.374Z,43.47
2023-04-03T15:13:48.453Z,43.65
2023-04-03T15:16:52.958Z,44.48
2023-04-03T15:20:00.951Z,44.43
2023-04-03T15:23:06.000Z,45.20
2023-04-03T15:26:12.889Z,45.16
2023-04-03T15:29:34.365Z,44.70
2023-04-03T15:32:38.493Z,45.09
2023-04-03T15:35:52.415Z,44.88
2023-04-03T15:38:56.410Z,45.33
2023-04-03T15:42:09.435Z,44.71
2023-04-03T15:45:23.290Z,45.10
2023-04-03T15:48:30.449Z,45.60
2023-04-03T15:51:43.285Z,45.86
2023-04-03T15:55:00.620Z,46.02
2023-04-03T15:58:12.022Z,45.25
2023-04-03T16:01:30.630Z,45.59
2023-04-03T16:04:36.330Z,45.38
2023-04-03T16:07:50.501Z,45.54
2023-04-03T16:11:01.655Z,45.99
2023-04-03T16:14:10.708Z,45.67
2023-04-03T16:17:25.385Z,44.82
2023-04-03T16:20:35.489Z,45.47
2023-04-03T16:23:47.661Z,45.45
2023-04-03T16:27:11.408Z,45.23
2023-04-03T16:30:21.411Z,45.93
2023-04-03T16:33:45.516Z,45.67
2023-04-03T16:36:56.358Z,45.52
2023-04-03T16:40:18.459Z,45.50
2023-04-03T16:43:24.106Z,45.49
2023-04-03T16:46:28.244Z,45.88
2023-04-03T16:49:37.934Z,45.71
2023-04-03T16:52:43.595Z,45.96
2023-04-03T16:55:48.407Z,46.04
2023-04-03T16:58:59.214Z,46.25
2023-04-03T17:02:09.458Z,45.62
2023-04-03T17:05:13.136Z,46.12
2023-04-03T17:08:30.394Z,46.10
2023-04-03T17:11:39.402Z,45.99
2023-04-03T17:14:48.547Z,45.98
2023-04-03T17:17:53.384Z,46.53
2023-04-03T17:21:03.448Z,46.82
2023-04-03T17:24:13.784Z,46.36
2023-04-03T17:27:24.664Z,47.09
2023-04-03T17:30:29.578Z,47.84
2023-04-03T17:33:35.894Z,49.61
2023-04-03T17:36:41.499Z,51.33
2023-04-03T17:40:02.395Z,52.76
2023-04-03T17:43:09.146Z,53.63
2023-04-03T17:46:21.779Z,54.62
2023-04-03T17:49:30.351Z,53.75
2023-04-03T17:52:40.553Z,54.52
2023-04-03T17:55:47.772Z,54.43
2023-04-03T17:58:58.813Z,54.69
2023-04-03T18:02:03.095Z,54.94
2023-04-03T18:05:11.027Z,55.62
2023-04-03T18:08:27.493Z,55.17
2023-04-03T18:11:35.569Z,55.06
2023-04-03T18:14:51.193Z,55.92
2023-04-03T18:18:10.526Z,56.02
2023-04-03T18:21:16.096Z,56.27
2023-04-03T18:24:34.096Z,55.67
2023-04-03T18:27:37.845Z,56.45
2023-04-03T18:30:45.726Z,56.14
2023-04-03T18:33:48.932Z,56.52
2023-04-03T18:37:10.324Z,56.31
2023-04-03T18:40:32.397Z,56.24
2023-04-03T18:43:44.658Z,55.98
2023-04-03T18:46:49.449Z,55.53
2023-04-03T18:50:01.521Z,56.03
2023-04-03T18:53:19.728Z,56.12
2023-04-03T18:56:34.374Z,56.45
2023-04-03T18:59:43.408Z,55.97
2023-04-03T19:02:53.488Z,56.13
2023-04-03T19:05:59.464Z,56.60
2023-04-03T19:09:09.798Z,57.17
2023-04-03T19:12:15.733Z,56.43
2023-04-03T19:15:26.536Z,56.53
2023-04-03T19:18:40.592Z,56.60
2023-04-03T19:21:51.530Z,56.95
2023-04-03T19:25:10.381Z,57.53
2023-04-03T19:28:19.415Z,57.35
2023-04-03T19:31:24.853Z,56.52
2023-04-03T19:34:34.709Z,56.31
2023-04-03T19:37:44.629Z,56.13
2023-04-03T19:40:56.063Z,55.76
2023-04-03T19:43:59.330Z,55.96
2023-04-03T19:47:06.404Z,56.14
2023-04-03T19:50:24.356Z,55.87
2023-04-03T19:53:29.502Z,56.37
2023-04-03T19:56:37.358Z,56.32
2023-04-03T19:59:50.305Z,56.56
2023-04-03T20:02:56.385Z,55.87
2023-04-03T20:05:59.976Z,56.19
2023-04-03T20:09:08.606Z,56.48
2023-04-03T20:12:20.125Z,50.86
2023-04-03T20:15:40.346Z,47.27
2023-04-03T20:18:47.447Z,47.49
2023-04-03T20:22:02.364Z,47.84
2023-04-03T20:25:17.444Z,46.78
2023-04-03T20:28:38.189Z,45.71
2023-04-03T20:31:42.391Z,46.26
2023-04-03T20:34:57.502Z,46.53
2023-04-03T20:38:07.302Z,45.17
2023-04-03T20:41:15.602Z,45.40
2023-04-03T20:44:19.912Z,45.68
2023-04-03T20:47:24.398Z,45.26
2023-04-03T20:50:31.062Z,44.21
2023-04-03T20:53:37.330Z,44.58
2023-04-03T20:56:41.139Z,45.95
2023-04-03T20:59:47.329Z,44.76
2023-04-03T21:02:50.721Z,44.30
2023-04-03T21:06:00.987Z,44.36
2023-04-03T21:09:41.826Z,43.60
2023-04-03T21:13:21.992Z,43.08
2023-04-03T21:16:27.303Z,43.18
2023-04-03T21:19:33.257Z,42.98
2023-04-03T21:22:43.412Z,43.04
2023-04-03T21:25:46.469Z,43.56
2023-04-03T21:28:59.508Z,43.63
2023-04-03T21:32:02.651Z,43.55
2023-04-03T21:35:07.729Z,43.72
2023-04-03T21:38:10.539Z,43.50
2023-04-03T21:41:16.338Z,43.51
2023-04-03T21:44:19.846Z,44.19
2023-04-03T21:47:24.086Z,44.82
2023-04-03T21:50:28.176Z,45.09
2023-04-03T21:53:34.561Z,45.09
2023-04-03T21:56:37.378Z,45.09
2023-04-03T21:59:41.362Z,45.35
2023-04-03T22:02:45.798Z,44.38
2023-04-03T22:05:49.626Z,44.71
2023-04-03T22:08:52.674Z,44.86
2023-04-03T22:11:55.875Z,44.79
2023-04-03T22:14:59.352Z,44.42
2023-04-03T22:18:02.484Z,44.09
2023-04-03T22:21:09.466Z,44.62
2023-04-03T22:24:15.067Z,45.14
2023-04-03T22:27:18.074Z,45.34
2023-04-03T22:30:21.975Z,46.00
2023-04-03T22:33:25.999Z,45.76
2023-04-03T22:36:28.656Z,46.51
2023-04-03T22:39:33.632Z,46.92
2023-04-03T22:42:38.276Z,47.13
2023-04-03T22:45:50.460Z,46.53
2023-04-03T22:48:54.085Z,46.75
2023-04-03T22:51:56.790Z,46.57
2023-04-03T22:55:06.325Z,46.24
2023-04-03T22:58:16.797Z,46.64
2023-04-03T23:01:23.983Z,46.97
2023-04-03T23:04:26.923Z,47.04
2023-04-03T23:07:30.772Z,46.83
2023-04-03T23:10:33.458Z,47.31
2023-04-03T23:13:38.099Z,46.91
2023-04-03T23:16:42.132Z,46.82
2023-04-03T23:19:45.629Z,47.62
2023-04-03T23:22:48.527Z,47.70
2023-04-03T23:25:57.102Z,47.58
2023-04-03T23:29:00.138Z,46.75
2023-04-03T23:32:03.965Z,47.04
2023-04-03T23:35:08.341Z,47.63
2023-04-03T23:38:13.163Z,46.72
2023-04-03T23:41:16.211Z,46.98
2023-04-03T23:44:19.203Z,46.90
2023-04-03T23:47:32.580Z,46.09
2023-04-03T23:50:37.375Z,46.67
2023-04-03T23:53:41.103Z,46.05
2023-04-03T23:56:44.074Z,46.43
2023-04-03T23:59:46.872Z,47.08
